Time;durP1;ratioP1;P1;durP2;ratioP2;P2;SDS_P1;SDS_P2;PMS_P1;PMS_P2;Temp;Humidity;BMP_temperature;BMP_pressure;BME280_temperature;BME280_humidity;BME280_pressure;Samples;Min_cycle;Max_cycle;Signal;HPM_P1;HPM_P2
2022/08/13 00:00:59;;;;;;;0.10;0.10;;;;;;;24.01;48.22;101273.41;5113635;28;20089;-35
2022/08/13 00:03:28;;;;;;;0.10;0.10;;;;;;;24.02;48.15;101282.59;5134439;27;20489;-35
2022/08/13 00:06:25;;;;;;;0.10;0.10;;;;;;;24.02;48.31;101282.59;5101852;27;20492;-35
2022/08/13 00:08:55;;;;;;;0.10;0.10;;;;;;;24.02;48.15;101277.84;5137646;27;20043;-35
2022/08/13 00:14:31;;;;;;;0.10;0.10;;;;;;;24.01;48.19;101267.84;5106421;27;20043;-36
2022/08/13 00:17:05;;;;;;;0.10;0.10;;;;;;;24.01;48.02;101270.63;5102756;27;20042;-35
2022/08/13 00:19:34;;;;;;;0.00;0.00;;;;;;;24.01;48.12;101272.59;5131630;27;20047;-36
2022/08/13 00:22:01;;;;;;;0.10;0.10;;;;;;;24.01;47.99;101278.97;5135483;27;20270;-35
2022/08/13 00:24:46;;;;;;;0.10;0.10;;;;;;;24.02;48.14;101277.03;5115701;28;20051;-35
2022/08/13 00:27:19;;;;;;;0.03;0.03;;;;;;;24.02;48.12;101282.59;5124469;27;20043;-35
2022/08/13 00:29:44;;;;;;;0.10;0.10;;;;;;;24.02;48.15;101285.38;5134333;27;20124;-35
2022/08/13 00:32:13;;;;;;;0.00;0.00;;;;;;;24.01;48.21;101276.19;5130397;27;20470;-36
2022/08/13 00:34:43;;;;;;;0.10;0.10;;;;;;;24.01;48.18;101278.16;5132578;27;20050;-35
2022/08/13 00:37:09;;;;;;;0.10;0.10;;;;;;;24.02;48.22;101275.06;5126747;27;20081;-35
2022/08/13 00:39:37;;;;;;;0.10;0.10;;;;;;;24.01;48.27;101272.59;5132279;27;20043;-35
2022/08/13 00:42:24;;;;;;;0.10;0.10;;;;;;;24.01;48.30;101272.59;5118703;27;20043;-35
2022/08/13 00:44:50;;;;;;;0.10;0.10;;;;;;;24.02;48.21;101266.72;5131825;27;20130;-35
2022/08/13 00:50:05;;;;;;;0.20;0.20;;;;;;;24.01;48.28;101258.69;5102353;27;20134;-35
2022/08/13 00:52:32;;;;;;;0.10;0.10;;;;;;;24.00;48.17;101257.00;5135740;27;20092;-35
2022/08/13 00:55:00;;;;;;;0.00;0.00;;;;;;;24.00;48.27;101255.06;5134459;27;20370;-35
2022/08/13 00:57:28;;;;;;;0.00;0.00;;;;;;;24.01;48.19;101255.91;5116696;27;20070;-35
2022/08/13 00:59:55;;;;;;;0.10;0.10;;;;;;;24.01;48.22;101250.34;5115556;27;20062;-35
2022/08/13 01:02:21;;;;;;;0.10;0.10;;;;;;;24.01;48.31;101250.34;5116420;27;20453;-35
2022/08/13 01:04:58;;;;;;;0.10;0.10;;;;;;;24.01;48.13;101251.16;5114990;27;20450;-35
2022/08/13 01:07:24;;;;;;;0.10;0.10;;;;;;;24.01;48.23;101255.91;5133446;27;20050;-35
2022/08/13 01:10:12;;;;;;;0.10;0.10;;;;;;;24.01;48.33;101265.06;5117116;27;20068;-36
2022/08/13 01:12:45;;;;;;;0.10;0.10;;;;;;;24.01;48.22;101261.47;5118105;27;20051;-35
2022/08/13 01:15:12;;;;;;;0.10;0.10;;;;;;;24.01;48.21;101259.50;5133962;27;20123;-35
2022/08/13 01:17:40;;;;;;;0.10;0.10;;;;;;;24.01;48.25;101256.72;5132720;27;20184;-35
2022/08/13 01:20:20;;;;;;;0.10;0.10;;;;;;;24.01;48.25;101258.69;5135140;27;20462;-35
2022/08/13 01:23:01;;;;;;;0.10;0.10;;;;;;;24.01;48.30;101258.69;5118747;27;20047;-35
2022/08/13 01:25:27;;;;;;;0.10;0.10;;;;;;;24.01;48.26;101262.28;5115347;27;20102;-35
2022/08/13 01:27:54;;;;;;;0.10;0.10;;;;;;;24.01;48.29;101261.47;5135403;27;20099;-35
2022/08/13 01:30:23;;;;;;;0.10;0.10;;;;;;;24.01;48.31;101258.69;5130363;27;20039;-36
2022/08/13 01:32:49;;;;;;;0.03;0.03;;;;;;;23.99;48.28;101253.41;5119746;27;20079;-35
2022/08/13 01:35:22;;;;;;;0.10;0.10;;;;;;;24.00;48.39;101252.28;5116638;27;20133;-35
2022/08/13 01:37:53;;;;;;;0.10;0.10;;;;;;;24.00;48.25;101257.84;5132697;27;20474;-35
2022/08/13 01:40:25;;;;;;;0.10;0.10;;;;;;;24.00;48.22;101260.63;5115288;28;20392;-35
2022/08/13 01:42:51;;;;;;;0.10;0.10;;;;;;;24.00;48.30;101260.63;5113395;27;20043;-35
2022/08/13 01:45:21;;;;;;;0.10;0.10;;;;;;;23.99;48.40;101258.97;5117918;27;20581;-35
2022/08/13 01:50:41;;;;;;;0.10;0.10;;;;;;;24.00;48.29;101257.00;5117754;28;20063;-35
2022/08/13 01:53:12;;;;;;;0.10;0.10;;;;;;;24.00;48.36;101255.06;5101580;27;20059;-35
2022/08/13 01:55:44;;;;;;;0.10;0.10;;;;;;;24.00;48.29;101259.78;5132793;27;20066;-35
2022/08/13 01:58:30;;;;;;;0.10;0.10;;;;;;;23.99;48.25;101258.97;5086235;27;20488;-35
2022/08/13 02:01:01;;;;;;;0.10;0.10;;;;;;;23.99;48.36;101253.41;5130892;27;20044;-35
2022/08/13 02:03:34;;;;;;;0.10;0.10;;;;;;;23.99;48.36;101258.97;5131314;27;20134;-35
2022/08/13 02:06:00;;;;;;;0.10;0.10;;;;;;;24.00;48.20;101254.22;5134043;27;20057;-35
2022/08/13 02:08:50;;;;;;;0.00;0.00;;;;;;;23.99;48.37;101260.94;5116998;27;20117;-35
2022/08/13 02:11:16;;;;;;;0.10;0.10;;;;;;;24.00;48.37;101259.78;5114172;27;20051;-35
2022/08/13 02:13:42;;;;;;;0.10;0.10;;;;;;;24.00;48.33;101263.41;5113846;27;20496;-35
2022/08/13 02:16:08;;;;;;;0.10;0.10;;;;;;;24.01;48.42;101264.25;5133896;27;20048;-35
2022/08/13 02:18:35;;;;;;;0.10;0.10;;;;;;;24.00;48.36;101268.13;5136250;27;20046;-35
2022/08/13 02:21:02;;;;;;;0.10;0.10;;;;;;;24.00;48.35;101268.97;5130430;27;20077;-35
2022/08/13 02:23:52;;;;;;;0.10;0.10;;;;;;;23.99;48.37;101267.31;5106442;28;20481;-35
2022/08/13 02:26:28;;;;;;;0.10;0.10;;;;;;;24.00;48.44;101263.41;5114317;28;20047;-35
2022/08/13 02:28:57;;;;;;;0.10;0.10;;;;;;;24.00;48.27;101265.34;5133121;27;20047;-35
2022/08/13 02:31:26;;;;;;;0.10;0.10;;;;;;;23.99;48.49;101270.09;5114694;27;20051;-35
2022/08/13 02:34:12;;;;;;;0.10;0.10;;;;;;;24.00;48.37;101270.91;5118352;27;20089;-35
2022/08/13 02:36:43;;;;;;;0.10;0.10;;;;;;;23.99;48.50;101274.84;5130695;27;20042;-36
2022/08/13 02:39:12;;;;;;;0.10;0.10;;;;;;;23.99;48.33;101266.50;5113420;28;20035;-35
2022/08/13 02:41:41;;;;;;;0.10;0.10;;;;;;;23.99;48.34;101277.63;5126082;27;20070;-36
2022/08/13 02:44:20;;;;;;;0.10;0.10;;;;;;;23.99;48.29;101280.41;5129618;27;20461;-35
2022/08/13 02:46:59;;;;;;;0.10;0.10;;;;;;;23.99;48.25;101272.88;5130250;27;20066;-35
2022/08/13 02:49:24;;;;;;;0.10;0.10;;;;;;;24.00;48.38;101276.47;5136101;27;20480;-36
2022/08/13 02:52:10;;;;;;;0.10;0.10;;;;;;;24.00;48.29;101274.53;5118268;27;20043;-35
2022/08/13 02:54:42;;;;;;;0.10;0.10;;;;;;;23.99;48.36;101277.63;5132084;27;20045;-35
2022/08/13 02:57:21;;;;;;;0.10;0.10;;;;;;;23.99;48.31;101278.44;5130250;27;20050;-36
2022/08/13 02:59:48;;;;;;;0.52;0.20;;;;;;;24.00;48.44;101282.88;5112222;27;20047;-35
2022/08/13 03:02:37;;;;;;;0.10;0.10;;;;;;;23.99;48.41;101281.22;5113856;27;20077;-35
2022/08/13 03:05:05;;;;;;;0.10;0.10;;;;;;;23.99;48.37;101283.19;5095764;27;20103;-36
2022/08/13 03:07:32;;;;;;;0.10;0.10;;;;;;;23.99;48.64;101281.22;5132002;27;20129;-35
2022/08/13 03:10:19;;;;;;;0.10;0.10;;;;;;;23.99;48.46;101272.88;5129686;27;20062;-35
2022/08/13 03:13:04;;;;;;;0.10;0.10;;;;;;;23.99;48.41;101278.44;5134396;27;20043;-37
2022/08/13 03:15:30;;;;;;;0.10;0.10;;;;;;;23.99;48.48;101277.63;5129793;27;20085;-36
2022/08/13 03:18:00;;;;;;;0.10;0.10;;;;;;;23.99;48.63;101278.44;5131270;27;20043;-36
2022/08/13 03:20:25;;;;;;;0.10;0.10;;;;;;;24.00;48.55;101282.06;5131225;27;20389;-36
2022/08/13 03:23:02;;;;;;;0.10;0.10;;;;;;;23.98;48.30;101279.59;5137859;27;20460;-36
2022/08/13 03:25:29;;;;;;;0.10;0.10;;;;;;;24.00;48.31;101284.84;5095374;27;20085;-36
2022/08/13 03:27:58;;;;;;;0.10;0.10;;;;;;;24.00;48.48;101282.06;5130189;27;20108;-35
2022/08/13 03:30:24;;;;;;;0.10;0.10;;;;;;;24.00;48.44;101284.84;5115820;27;20077;-36
2022/08/13 03:32:56;;;;;;;0.10;0.10;;;;;;;23.99;48.32;101278.44;5133656;27;20430;-36
2022/08/13 03:35:26;;;;;;;0.10;0.10;;;;;;;23.99;48.53;101286.78;5133095;27;20043;-36
2022/08/13 03:38:10;;;;;;;0.10;0.10;;;;;;;23.98;48.52;101282.38;5130670;27;20517;-36
2022/08/13 03:41:11;;;;;;;0.10;0.10;;;;;;;23.99;48.40;101285.97;5116194;27;20043;-35
2022/08/13 03:43:23;;;;;;;0.10;0.10;;;;;;;23.97;48.45;101277.94;5118145;27;20126;-35
2022/08/13 03:45:51;;;;;;;0.10;0.10;;;;;;;23.98;48.48;101282.38;5128706;27;20534;-35
2022/08/13 03:48:17;;;;;;;0.10;0.10;;;;;;;23.98;48.51;101284.31;5131679;27;20051;-35
2022/08/13 03:50:46;;;;;;;0.00;0.00;;;;;;;23.98;48.58;101287.94;5116964;27;20495;-36
2022/08/13 03:53:20;;;;;;;0.10;0.10;;;;;;;23.98;48.58;101287.94;5132574;27;20083;-35
2022/08/13 03:56:07;;;;;;;0.10;0.10;;;;;;;23.99;48.54;101285.97;5105354;27;20062;-35
2022/08/13 03:58:37;;;;;;;0.10;0.10;;;;;;;23.98;48.42;101285.16;5134446;27;20040;-35
2022/08/13 04:01:04;;;;;;;0.10;0.10;;;;;;;23.98;48.49;101287.94;5130361;27;20054;-36
2022/08/13 04:03:36;;;;;;;0.10;0.10;;;;;;;23.98;48.53;101285.16;5135977;27;20081;-35
2022/08/13 04:06:06;;;;;;;0.10;0.10;;;;;;;23.98;48.56;101279.59;5102580;27;20047;-36
2022/08/13 04:08:34;;;;;;;0.10;0.10;;;;;;;23.98;48.45;101285.16;5116417;28;20071;-35
2022/08/13 04:11:04;;;;;;;0.10;0.10;;;;;;;23.98;48.48;101281.53;5131919;27;20082;-36
2022/08/13 04:13:36;;;;;;;0.10;0.10;;;;;;;23.98;48.47;101285.16;5113848;28;20043;-36
2022/08/13 04:16:23;;;;;;;0.10;0.10;;;;;;;23.98;48.59;101284.31;5114384;28;20419;-35
2022/08/13 04:18:58;;;;;;;0.10;0.10;;;;;;;23.97;48.63;101289.06;5133493;27;20462;-35
2022/08/13 04:21:28;;;;;;;0.10;0.10;;;;;;;23.98;48.58;101287.94;5132654;27;20050;-35
2022/08/13 04:23:54;;;;;;;0.10;0.10;;;;;;;23.98;48.44;101292.66;5139015;27;20044;-35
2022/08/13 04:26:23;;;;;;;0.10;0.10;;;;;;;23.98;48.50;101285.16;5134278;27;20051;-35
2022/08/13 04:28:57;;;;;;;0.10;0.10;;;;;;;23.99;48.53;101291.53;5133556;27;20397;-35
2022/08/13 04:31:23;;;;;;;0.10;0.10;;;;;;;23.98;48.51;101298.22;5133389;27;20047;-35
2022/08/13 04:34:09;;;;;;;0.10;0.10;;;;;;;23.99;48.65;101291.53;5121717;27;20496;-36
2022/08/13 04:36:56;;;;;;;0.10;0.10;;;;;;;23.99;48.64;101291.53;5117371;28;20047;-35
2022/08/13 04:39:24;;;;;;;0.10;0.10;;;;;;;23.98;48.59;101295.44;5110091;28;20040;-35
2022/08/13 04:41:53;;;;;;;0.10;0.10;;;;;;;23.98;48.61;101296.28;5134243;27;20521;-35
2022/08/13 04:44:20;;;;;;;0.10;0.10;;;;;;;23.97;48.64;101300.19;5132011;27;20074;-35
2022/08/13 04:46:46;;;;;;;0.10;0.10;;;;;;;23.97;48.64;101297.41;5133383;27;20138;-35
2022/08/13 04:49:12;;;;;;;0.10;0.10;;;;;;;23.99;48.72;101302.66;5132993;27;20043;-36
2022/08/13 04:51:40;;;;;;;0.10;0.10;;;;;;;23.98;48.55;101293.50;5134318;27;20525;-35
2022/08/13 04:54:07;;;;;;;0.10;0.10;;;;;;;23.97;48.70;101297.41;5139770;27;20395;-36
2022/08/13 04:56:33;;;;;;;0.10;0.10;;;;;;;23.98;48.65;101292.66;5131318;27;20116;-35
2022/08/13 04:59:00;;;;;;;0.10;0.10;;;;;;;23.98;48.71;101295.44;5132833;27;20195;-36
2022/08/13 05:01:29;;;;;;;0.10;0.10;;;;;;;23.97;48.79;101294.63;5134372;27;20133;-35
2022/08/13 05:04:17;;;;;;;0.10;0.10;;;;;;;23.98;48.65;101303.81;5116543;28;20496;-35
2022/08/13 05:06:51;;;;;;;0.10;0.10;;;;;;;23.97;48.67;101299.38;5129202;27;20071;-35
2022/08/13 05:09:19;;;;;;;0.10;0.10;;;;;;;23.97;48.59;101299.38;5133999;27;20046;-35
2022/08/13 05:11:44;;;;;;;0.10;0.10;;;;;;;23.97;48.58;101297.41;5134996;27;20077;-35
2022/08/13 05:14:10;;;;;;;0.10;0.10;;;;;;;23.97;48.51;101297.41;5133709;27;20051;-36
2022/08/13 05:16:37;;;;;;;0.10;0.10;;;;;;;23.97;48.69;101300.19;5132559;27;20053;-35
2022/08/13 05:19:04;;;;;;;0.10;0.10;;;;;;;23.98;48.61;101298.22;5116011;28;20039;-35
2022/08/13 05:21:32;;;;;;;0.10;0.10;;;;;;;23.98;48.59;101301.03;5133339;27;20106;-35
2022/08/13 05:24:18;;;;;;;0.10;0.10;;;;;;;23.97;48.55;101302.97;5116509;28;20047;-35
2022/08/13 05:27:04;;;;;;;0.10;0.10;;;;;;;23.97;48.56;101305.75;5118238;27;20047;-35
2022/08/13 05:29:37;;;;;;;0.10;0.10;;;;;;;23.98;48.77;101309.38;5132927;27;20184;-36
2022/08/13 05:32:23;;;;;;;0.10;0.10;;;;;;;23.96;48.57;101306.91;5120586;27;20734;-37
2022/08/13 05:34:49;;;;;;;0.10;0.10;;;;;;;23.97;48.58;101310.50;5133586;27;20482;-36
2022/08/13 05:37:17;;;;;;;0.10;0.10;;;;;;;23.97;48.70;101316.88;5131181;27;20042;-35
2022/08/13 05:40:03;;;;;;;0.10;0.10;;;;;;;23.97;48.75;101318.84;5117454;27;20473;-36
2022/08/13 05:42:33;;;;;;;0.10;0.10;;;;;;;23.97;48.56;101316.88;5133536;27;20062;-35
2022/08/13 05:44:59;;;;;;;0.10;0.10;;;;;;;23.97;48.73;101310.50;5115402;27;20047;-35
2022/08/13 05:47:26;;;;;;;0.10;0.10;;;;;;;23.97;48.66;101316.06;5131571;27;20047;-35
2022/08/13 05:49:53;;;;;;;0.10;0.10;;;;;;;23.97;48.64;101316.06;5103203;27;20467;-35
2022/08/13 05:52:25;;;;;;;0.10;0.10;;;;;;;23.97;48.73;101318.84;5117419;27;20073;-35
2022/08/13 05:54:59;;;;;;;0.10;0.10;;;;;;;23.97;48.55;101316.06;5133964;27;20130;-37
2022/08/13 05:57:45;;;;;;;0.10;0.10;;;;;;;23.97;48.64;101316.06;5113176;27;20070;-35
2022/08/13 06:03:35;;;;;;;0.10;0.10;;;;;;;23.97;48.79;101316.06;5117570;27;20047;-36
2022/08/13 06:06:11;;;;;;;0.10;0.10;;;;;;;23.96;48.49;101314.38;5089618;27;20050;-35
2022/08/13 06:08:44;;;;;;;0.22;0.22;;;;;;;23.97;48.78;101316.06;5116036;28;20051;-35
2022/08/13 06:11:14;;;;;;;0.10;0.10;;;;;;;23.96;48.66;101315.25;5132315;27;20047;-35
2022/08/13 06:13:48;;;;;;;0.10;0.10;;;;;;;23.96;48.54;101322.72;5133118;27;20051;-35
2022/08/13 06:16:32;;;;;;;0.10;0.10;;;;;;;23.96;48.55;101319.94;5110372;28;20043;-36
2022/08/13 06:19:21;;;;;;;0.10;0.10;;;;;;;23.96;48.85;101323.59;5103774;27;20044;-35
2022/08/13 06:21:59;;;;;;;0.10;0.10;;;;;;;23.97;48.70;101327.19;5114239;27;20043;-35
2022/08/13 06:24:27;;;;;;;0.10;0.10;;;;;;;23.96;48.82;101318.03;5135470;27;20046;-36
2022/08/13 06:26:53;;;;;;;0.10;0.10;;;;;;;23.95;48.74;101319.13;5117083;27;20078;-35
2022/08/13 06:29:20;;;;;;;0.10;0.10;;;;;;;23.97;48.91;101329.97;5133225;27;20047;-35
2022/08/13 06:31:48;;;;;;;0.10;0.10;;;;;;;23.96;48.65;101323.59;5115939;27;20067;-35
2022/08/13 06:34:13;;;;;;;0.10;0.10;;;;;;;23.96;48.76;101322.72;5131159;27;20137;-36
2022/08/13 06:36:59;;;;;;;0.10;0.10;;;;;;;23.95;48.68;101327.47;5116330;27;20051;-35
2022/08/13 06:39:30;;;;;;;0.10;0.10;;;;;;;23.96;48.84;101325.50;5131778;27;20039;-35
2022/08/13 06:41:59;;;;;;;;;;;;;;;23.96;48.72;101328.28;5133382;27;20070;-35
2022/08/13 06:44:32;;;;;;;0.10;0.10;;;;;;;23.95;48.71;101326.66;5131023;27;19976;-35
2022/08/13 06:47:03;;;;;;;0.10;0.10;;;;;;;23.96;48.79;101322.72;5103905;28;20051;-35
2022/08/13 06:49:31;;;;;;;0.10;0.10;;;;;;;23.95;48.68;101324.69;5132158;27;20039;-35
2022/08/13 06:52:17;;;;;;;0.10;0.10;;;;;;;23.96;48.64;101325.50;5120199;27;20050;-36
2022/08/13 06:54:43;;;;;;;0.10;0.10;;;;;;;23.95;48.72;101324.69;5134379;27;20039;-35
2022/08/13 06:57:09;;;;;;;0.10;0.10;;;;;;;23.96;48.80;101328.28;5130051;27;20043;-35
2022/08/13 06:59:48;;;;;;;0.10;0.10;;;;;;;23.96;48.71;101329.16;5132443;27;20389;-35
2022/08/13 07:02:35;;;;;;;0.10;0.10;;;;;;;23.95;48.77;101330.25;5119429;27;20397;-35
2022/08/13 07:05:00;;;;;;;0.10;0.10;;;;;;;23.95;48.66;101329.44;5131146;27;20348;-35
2022/08/13 07:07:33;;;;;;;0.10;0.10;;;;;;;23.96;48.84;101333.84;5131478;27;20464;-35
2022/08/13 07:10:00;;;;;;;0.10;0.10;;;;;;;23.95;48.71;101330.25;5130888;27;20043;-35
2022/08/13 07:12:26;;;;;;;0.10;0.10;;;;;;;23.95;48.79;101333.03;5133850;27;20133;-35
2022/08/13 07:14:53;;;;;;;0.10;0.10;;;;;;;23.94;48.67;101331.41;5110636;27;20092;-35
2022/08/13 07:17:27;;;;;;;0.10;0.10;;;;;;;23.94;48.71;101331.41;5130160;27;20039;-36
2022/08/13 07:19:59;;;;;;;0.10;0.10;;;;;;;23.94;48.88;101328.59;5113379;27;20051;-35
2022/08/13 07:22:34;;;;;;;0.10;0.10;;;;;;;23.95;48.77;101332.22;5132701;27;20350;-35
2022/08/13 07:25:22;;;;;;;0.10;0.10;;;;;;;23.95;48.81;101330.25;5115531;27;20039;-35
2022/08/13 07:27:50;;;;;;;0.10;0.10;;;;;;;23.95;48.79;101333.03;5112294;28;20074;-36
2022/08/13 07:30:20;;;;;;;0.10;0.10;;;;;;;23.95;48.88;101335.81;5106836;27;20051;-35
2022/08/13 07:32:47;;;;;;;0.10;0.10;;;;;;;23.95;48.74;101335.00;5115036;27;20130;-36
2022/08/13 07:35:13;;;;;;;0.10;0.10;;;;;;;23.96;48.75;101328.28;5138556;27;20078;-35
2022/08/13 07:37:45;;;;;;;0.10;0.10;;;;;;;23.96;48.86;101325.50;5130355;27;20079;-36
2022/08/13 07:40:19;;;;;;;0.10;0.10;;;;;;;23.95;48.63;101326.66;5128996;27;20255;-35
2022/08/13 07:42:49;;;;;;;0.20;0.20;;;;;;;23.96;48.56;101336.63;5130207;27;20047;-35
2022/08/13 07:45:23;;;;;;;0.10;0.10;;;;;;;23.95;48.69;101335.81;5131802;27;20086;-35
2022/08/13 07:48:08;;;;;;;0.10;0.10;;;;;;;23.94;48.83;101331.41;5107007;27;20058;-35
2022/08/13 07:50:54;;;;;;;0.10;0.10;;;;;;;23.95;48.74;101332.22;5109505;27;20067;-35
2022/08/13 07:53:33;;;;;;;0.10;0.10;;;;;;;23.95;48.74;101335.00;5137123;27;20047;-35
2022/08/13 07:56:24;;;;;;;0.08;0.08;;;;;;;23.96;48.82;101336.63;5119616;27;20099;-37
2022/08/13 07:58:56;;;;;;;0.08;0.08;;;;;;;23.96;48.73;101336.63;5100875;28;20095;-35
2022/08/13 08:01:22;;;;;;;0.10;0.10;;;;;;;23.96;48.78;101333.84;5136139;27;20126;-35
2022/08/13 08:03:52;;;;;;;0.10;0.10;;;;;;;23.96;48.71;101333.84;5135481;27;20043;-36
2022/08/13 08:06:20;;;;;;;0.10;0.10;;;;;;;23.95;48.79;101327.47;5136644;27;20465;-36
2022/08/13 08:08:57;;;;;;;0.10;0.10;;;;;;;23.95;48.69;101323.88;5109525;28;20086;-36
2022/08/13 08:14:16;;;;;;;0.10;0.10;;;;;;;23.94;48.72;101328.59;5103142;27;20047;-35
2022/08/13 08:16:48;;;;;;;0.10;0.10;;;;;;;23.95;48.90;101335.81;5133066;27;20050;-35
2022/08/13 08:19:14;;;;;;;0.10;0.10;;;;;;;23.94;48.95;101331.41;5137664;27;20122;-35
2022/08/13 08:22:02;;;;;;;0.10;0.10;;;;;;;23.95;48.81;101326.66;5119123;27;20058;-35
2022/08/13 08:24:50;;;;;;;;;;;;;;;23.95;48.85;101329.44;5109221;28;20462;-35
2022/08/13 08:27:16;;;;;;;0.10;0.10;;;;;;;23.94;48.91;101333.34;5134245;27;20297;-36
2022/08/13 08:30:02;;;;;;;0.10;0.10;;;;;;;23.94;48.81;101330.56;5103042;28;20066;-35
2022/08/13 08:32:39;;;;;;;0.10;0.10;;;;;;;23.94;48.82;101327.78;5121204;27;20043;-36
2022/08/13 08:35:05;;;;;;;0.10;0.10;;;;;;;23.92;48.90;101333.66;5132469;27;20134;-35
2022/08/13 08:43:26;;;;;;;0.10;0.10;;;;;;;23.95;48.96;101335.81;5095178;27;20234;-35
2022/08/13 08:45:52;;;;;;;0.10;0.10;;;;;;;23.95;48.92;101333.03;5131368;27;20082;-35
2022/08/13 08:48:40;;;;;;;0.10;0.10;;;;;;;23.95;48.77;101335.00;5116918;27;20103;-36
2022/08/13 08:51:06;;;;;;;0.00;0.00;;;;;;;23.95;48.77;101335.00;5111781;28;20473;-35
2022/08/13 08:53:47;;;;;;;0.10;0.10;;;;;;;23.94;48.77;101331.41;5117596;28;20448;-35
2022/08/13 08:56:34;;;;;;;0.10;0.10;;;;;;;23.94;48.87;101328.59;5118619;28;20051;-36
2022/08/13 08:59:02;;;;;;;0.10;0.10;;;;;;;23.94;48.82;101334.19;5114652;27;20123;-35
2022/08/13 09:01:33;;;;;;;0.00;0.00;;;;;;;23.94;48.75;101331.41;5133731;27;20089;-35
2022/08/13 09:04:20;;;;;;;0.10;0.10;;;;;;;23.94;48.91;101323.03;5106085;28;20039;-35
2022/08/13 09:06:52;;;;;;;0.10;0.10;;;;;;;23.93;48.82;101329.75;5135794;27;20484;-35
2022/08/13 09:09:23;;;;;;;0.10;0.10;;;;;;;23.94;48.83;101319.44;5137237;27;21371;-35
2022/08/13 09:11:55;;;;;;;0.10;0.10;;;;;;;23.94;48.88;101323.03;5133731;27;20465;-35
2022/08/13 09:14:26;;;;;;;0.10;0.10;;;;;;;23.95;48.80;101319.13;5103459;27;20489;-35
2022/08/13 09:16:54;;;;;;;0.10;0.10;;;;;;;23.93;48.83;101318.63;5095316;27;20082;-35
2022/08/13 09:19:20;;;;;;;0.10;0.10;;;;;;;23.94;48.80;101322.22;5133777;27;20139;-35
2022/08/13 09:22:05;;;;;;;0.10;0.10;;;;;;;23.93;48.93;101310.28;5120667;27;20035;-35
2022/08/13 09:24:31;;;;;;;0.10;0.10;;;;;;;23.94;48.97;101311.09;5134201;27;20046;-35
2022/08/13 09:26:57;;;;;;;0.10;0.10;;;;;;;23.94;48.84;101306.34;5133621;27;20105;-35
2022/08/13 09:29:25;;;;;;;0.10;0.10;;;;;;;23.93;48.83;101310.28;5135308;27;20044;-36
2022/08/13 09:31:58;;;;;;;0.10;0.10;;;;;;;23.95;48.85;101307.19;5132921;27;20392;-35
2022/08/13 09:34:27;;;;;;;0.10;0.10;;;;;;;23.94;48.87;101306.34;5135269;27;20092;-35
2022/08/13 09:36:56;;;;;;;0.10;0.10;;;;;;;23.95;48.93;101301.63;5111120;28;20394;-35
2022/08/13 09:39:44;;;;;;;0.10;0.10;;;;;;;23.94;48.74;101302.75;5131590;27;20127;-35
2022/08/13 09:42:15;;;;;;;0.10;0.10;;;;;;;23.94;48.92;101299.97;5122697;27;20051;-35
2022/08/13 09:44:53;;;;;;;0.10;0.10;;;;;;;23.93;48.94;101296.38;5131491;27;20067;-35
2022/08/13 09:47:19;;;;;;;0.10;0.10;;;;;;;23.93;48.99;101296.38;5115324;27;20047;-35
2022/08/13 09:50:06;;;;;;;0.10;0.10;;;;;;;23.93;48.78;101298.31;5115356;27;20391;-35
2022/08/13 09:52:32;;;;;;;0.10;0.10;;;;;;;23.94;48.84;101297.19;5134677;27;20168;-35
2022/08/13 09:54:57;;;;;;;0.10;0.10;;;;;;;23.93;48.96;101293.59;5134562;27;20046;-35
2022/08/13 09:57:24;;;;;;;0.10;0.10;;;;;;;23.94;49.01;101294.41;5132903;27;20169;-35
2022/08/13 09:59:51;;;;;;;0.10;0.10;;;;;;;23.94;48.81;101291.63;5133679;27;20111;-35
2022/08/13 10:02:23;;;;;;;0.10;0.10;;;;;;;23.94;48.98;101291.63;5129515;27;20041;-35
2022/08/13 10:04:52;;;;;;;0.10;0.10;;;;;;;23.94;48.76;101280.50;5117415;27;20046;-35
2022/08/13 10:07:19;;;;;;;0.10;0.10;;;;;;;23.93;49.14;101278.84;5133835;27;20123;-35
2022/08/13 10:09:48;;;;;;;0.10;0.10;;;;;;;23.93;49.05;101285.25;5113298;28;20099;-35
2022/08/13 10:12:33;;;;;;;0.10;0.10;;;;;;;23.92;49.01;101278.03;5118934;27;20100;-35
2022/08/13 10:14:59;;;;;;;0.10;0.10;;;;;;;23.94;48.77;101274.94;5132964;27;20039;-36
2022/08/13 10:17:26;;;;;;;0.10;0.10;;;;;;;23.93;48.85;101271.34;5130865;27;20051;-35
2022/08/13 10:20:13;;;;;;;0.10;0.10;;;;;;;23.94;48.95;101272.16;5100453;28;20394;-35
2022/08/13 10:22:42;;;;;;;0.10;0.10;;;;;;;23.93;48.81;101265.78;5132364;27;20080;-35
2022/08/13 10:25:07;;;;;;;0.10;0.10;;;;;;;23.93;48.70;101251.88;5132833;27;20082;-35
2022/08/13 10:27:35;;;;;;;0.10;0.10;;;;;;;23.94;49.13;101255.47;5135561;27;20039;-35
2022/08/13 10:30:14;;;;;;;0.10;0.10;;;;;;;23.93;48.91;101249.09;5114192;27;20173;-35
2022/08/13 10:33:00;;;;;;;0.10;0.10;;;;;;;23.93;48.98;101254.66;5119171;27;20058;-36
2022/08/13 10:35:29;;;;;;;0.10;0.10;;;;;;;23.94;48.79;101244.34;5130366;27;20043;-35
2022/08/13 10:37:57;;;;;;;0.10;0.10;;;;;;;23.93;48.99;101246.31;5113613;27;20432;-35
2022/08/13 10:40:26;;;;;;;0.10;0.10;;;;;;;23.94;48.81;101236.00;5133148;27;20071;-35
2022/08/13 10:43:05;;;;;;;0.10;0.10;;;;;;;23.94;48.97;101247.13;5100467;27;20522;-35
2022/08/13 10:45:31;;;;;;;0.10;0.10;;;;;;;23.93;48.86;101240.72;5131199;27;20039;-36
2022/08/13 10:48:00;;;;;;;0.10;0.10;;;;;;;23.94;49.03;101242.38;5131949;27;20199;-35
2022/08/13 10:50:30;;;;;;;0.10;0.10;;;;;;;23.94;49.01;101239.59;5130362;27;20043;-36
2022/08/13 10:52:57;;;;;;;0.10;0.10;;;;;;;23.94;49.04;101238.78;5116388;28;20176;-35
2022/08/13 10:55:24;;;;;;;0.10;0.10;;;;;;;23.94;48.79;101236.00;5130718;27;20108;-35
2022/08/13 10:57:52;;;;;;;0.10;0.10;;;;;;;23.93;48.98;101235.16;5134497;27;20092;-35
2022/08/13 11:00:28;;;;;;;0.10;0.10;;;;;;;23.93;49.10;101229.59;5115737;27;20067;-35
2022/08/13 11:02:54;;;;;;;0.10;0.10;;;;;;;23.93;49.02;101221.25;5132365;27;20043;-35
2022/08/13 11:05:25;;;;;;;0.10;0.10;;;;;;;23.93;48.82;101231.56;5133775;27;20047;-35
2022/08/13 11:07:52;;;;;;;0.10;0.10;;;;;;;23.93;48.83;101228.78;5131045;27;20137;-35
2022/08/13 11:10:20;;;;;;;0.10;0.10;;;;;;;23.93;48.98;101220.44;5129961;27;20489;-35
2022/08/13 11:12:50;;;;;;;0.13;0.13;;;;;;;23.94;48.95;101224.88;5114254;27;20063;-35
2022/08/13 11:15:22;;;;;;;0.10;0.10;;;;;;;23.92;48.88;101216.84;5131774;27;20042;-35
2022/08/13 11:17:50;;;;;;;0.10;0.10;;;;;;;23.94;48.77;101216.53;5111582;27;20042;-35
2022/08/13 11:20:20;;;;;;;0.10;0.10;;;;;;;23.93;48.83;101215.69;5114501;27;20119;-35
2022/08/13 11:22:51;;;;;;;0.00;0.00;;;;;;;23.94;49.04;101206.22;5130039;27;20042;-35
2022/08/13 11:25:18;;;;;;;0.10;0.10;;;;;;;23.94;48.95;101210.97;5132244;27;20074;-35
2022/08/13 11:28:10;;;;;;;0.10;0.10;;;;;;;23.93;49.06;101204.56;5101769;27;20047;-35
2022/08/13 11:30:36;;;;;;;0.10;0.10;;;;;;;23.93;49.01;101200.97;5111980;27;20130;-35
2022/08/13 11:33:04;;;;;;;0.10;0.10;;;;;;;23.92;48.92;101205.72;5129375;27;20040;-35
2022/08/13 11:35:33;;;;;;;0.10;0.10;;;;;;;23.92;48.98;101204.84;5113729;27;20043;-35
2022/08/13 11:38:06;;;;;;;0.10;0.10;;;;;;;23.92;49.07;101183.47;5110643;28;20075;-35
2022/08/13 11:40:34;;;;;;;0.10;0.10;;;;;;;23.93;49.07;101187.06;5133725;27;20667;-35
2022/08/13 11:43:04;;;;;;;0.10;0.10;;;;;;;23.92;48.96;101174.25;5116947;27;20047;-35
2022/08/13 11:45:38;;;;;;;0.10;0.10;;;;;;;23.92;49.05;101180.69;5132352;27;20046;-35
2022/08/13 11:48:10;;;;;;;0.10;0.10;;;;;;;23.92;48.97;101175.13;5130455;27;20146;-35
2022/08/13 11:50:35;;;;;;;0.10;0.10;;;;;;;23.92;49.09;101171.47;5130206;27;20047;-35
2022/08/13 11:53:01;;;;;;;0.10;0.10;;;;;;;23.92;49.10;101172.34;5131308;27;20064;-35
2022/08/13 11:55:34;;;;;;;0.10;0.10;;;;;;;23.93;48.91;101173.97;5129951;27;20047;-35
2022/08/13 11:58:19;;;;;;;0.10;0.10;;;;;;;23.94;49.09;101172.00;5115824;27;20409;-35
2022/08/13 12:01:06;;;;;;;0.10;0.10;;;;;;;23.93;49.10;101168.41;5115467;27;20389;-36
2022/08/13 12:03:39;;;;;;;0.10;0.10;;;;;;;23.93;48.88;101170.38;5136775;27;20393;-35
2022/08/13 12:06:24;;;;;;;0.10;0.10;;;;;;;23.92;48.92;101166.78;5115840;27;20043;-35
2022/08/13 12:08:52;;;;;;;0.10;0.10;;;;;;;23.92;49.09;101163.13;5131152;27;20055;-35
2022/08/13 12:11:37;;;;;;;0.10;0.10;;;;;;;23.92;49.09;101175.13;5117008;27;20043;-35